createdAt,value
2022-11-22T00:02:25.438Z,35.20
2022-11-22T00:07:29.001Z,37.20
2022-11-22T00:12:32.482Z,37.40
2022-11-22T00:17:36.752Z,34.00
2022-11-22T00:22:44.435Z,40.20
2022-11-22T00:27:48.557Z,39.10
2022-11-22T00:32:52.072Z,43.20
2022-11-22T00:37:55.588Z,41.50
2022-11-22T00:42:59.104Z,42.00
2022-11-22T00:48:02.622Z,31.70
2022-11-22T00:53:06.143Z,31.10
2022-11-22T00:58:09.549Z,29.80
2022-11-22T01:03:14.034Z,34.70
2022-11-22T01:13:20.916Z,43.80
2022-11-22T01:18:24.427Z,42.90
2022-11-22T01:23:28.048Z,35.10
2022-11-22T01:28:31.563Z,42.90
2022-11-22T01:33:35.080Z,47.20
2022-11-22T01:38:38.797Z,43.80
2022-11-22T01:43:42.210Z,35.70
2022-11-22T01:48:48.902Z,42.80
2022-11-22T01:53:56.512Z,46.40
2022-11-22T01:59:03.917Z,45.10
2022-11-22T02:04:10.599Z,48.70
2022-11-22T02:09:15.558Z,46.00
2022-11-22T02:14:26.214Z,48.00
2022-11-22T02:19:44.709Z,46.40
2022-11-22T02:25:03.583Z,51.00
2022-11-22T02:30:07.539Z,49.50
2022-11-22T02:35:23.928Z,48.40
2022-11-22T02:40:31.537Z,47.90
2022-11-22T02:45:34.952Z,40.40
2022-11-22T02:50:38.681Z,50.20
2022-11-22T02:55:42.085Z,50.30
2022-11-22T03:00:45.674Z,52.40
2022-11-22T03:05:49.327Z,50.10
2022-11-22T03:10:52.855Z,50.70
2022-11-22T03:15:56.557Z,55.00
2022-11-22T03:21:04.371Z,53.70
2022-11-22T03:26:12.315Z,52.00
2022-11-22T03:31:15.703Z,52.60
2022-11-22T03:36:19.426Z,54.50
2022-11-22T03:41:22.839Z,51.50
2022-11-22T03:46:26.353Z,40.50
2022-11-22T03:51:29.869Z,54.60
2022-11-22T03:56:33.384Z,52.10
2022-11-22T04:01:36.852Z,40.80
2022-11-22T04:06:40.427Z,49.80
2022-11-22T04:11:43.941Z,41.70
2022-11-22T04:16:47.346Z,50.30
2022-11-22T04:21:50.860Z,52.10
2022-11-22T04:26:54.992Z,48.50
2022-11-22T04:32:30.761Z,48.50
2022-11-22T04:37:34.072Z,48.90
2022-11-22T04:42:56.226Z,48.60
2022-11-22T04:47:59.643Z,47.10
2022-11-22T04:53:03.256Z,49.60
2022-11-22T04:58:06.770Z,50.10
2022-11-22T05:03:11.191Z,50.50
2022-11-22T05:08:14.831Z,47.20
2022-11-22T05:13:19.366Z,48.20
2022-11-22T05:18:23.732Z,49.70
2022-11-22T05:28:49.166Z,48.70
2022-11-22T05:33:53.909Z,52.80
2022-11-22T05:38:57.220Z,50.70
2022-11-22T05:44:00.780Z,53.70
2022-11-22T05:49:04.358Z,54.60
2022-11-22T05:54:07.869Z,39.60
2022-11-22T05:59:11.460Z,50.90
2022-11-22T06:04:14.900Z,52.50
2022-11-22T06:09:18.312Z,51.90
2022-11-22T06:14:21.828Z,55.30
2022-11-22T06:19:25.247Z,51.00
2022-11-22T06:24:28.759Z,53.20
2022-11-22T06:29:32.552Z,57.50
2022-11-22T06:34:36.505Z,55.20
2022-11-22T06:39:40.018Z,53.30
2022-11-22T06:44:43.537Z,42.60
2022-11-22T06:49:46.949Z,50.60
2022-11-22T06:54:50.372Z,51.10
2022-11-22T06:59:53.878Z,48.90
2022-11-22T07:05:24.034Z,47.40
2022-11-22T07:10:20.569Z,45.70
2022-11-22T07:15:24.086Z,49.00
2022-11-22T07:20:27.497Z,44.80
2022-11-22T07:25:31.013Z,49.60
2022-11-22T07:30:34.528Z,49.10
2022-11-22T07:35:38.147Z,47.80
2022-11-22T07:40:41.560Z,45.20
2022-11-22T07:45:44.971Z,44.80
2022-11-22T07:50:48.282Z,49.60
2022-11-22T07:55:51.799Z,46.10
2022-11-22T08:00:55.315Z,45.70
2022-11-22T08:06:03.377Z,47.30
2022-11-22T08:11:07.673Z,48.70
2022-11-22T08:16:13.889Z,46.30
2022-11-22T08:21:19.006Z,50.50
2022-11-22T08:26:22.724Z,47.40
2022-11-22T08:31:27.444Z,47.30
2022-11-22T08:36:30.980Z,48.10
2022-11-22T08:41:34.499Z,47.70
2022-11-22T08:46:38.014Z,43.20
2022-11-22T08:51:45.527Z,44.00
2022-11-22T08:56:49.243Z,46.30
2022-11-22T09:01:52.727Z,46.20
2022-11-22T09:12:19.860Z,47.10
2022-11-22T09:17:23.374Z,45.40
2022-11-22T09:22:28.628Z,38.90
2022-11-22T09:27:33.886Z,39.20
2022-11-22T09:32:37.611Z,42.60
2022-11-22T09:37:41.532Z,39.20
2022-11-22T09:43:01.845Z,40.90
2022-11-22T09:48:43.760Z,40.60
2022-11-22T09:53:47.180Z,40.60
2022-11-22T09:59:00.003Z,39.00
2022-11-22T10:04:13.965Z,37.60
2022-11-22T10:09:33.003Z,37.20
2022-11-22T10:14:46.186Z,36.60
2022-11-22T10:20:14.178Z,34.00
2022-11-22T10:25:44.315Z,35.50
2022-11-22T10:31:14.419Z,35.00
2022-11-22T10:36:27.187Z,33.80
2022-11-22T10:42:16.065Z,35.40
2022-11-22T10:47:34.418Z,34.50
2022-11-22T10:52:56.070Z,35.00
2022-11-22T10:58:05.423Z,32.00
2022-11-22T11:03:32.798Z,30.70
2022-11-22T11:14:32.073Z,28.80
2022-11-22T11:19:42.021Z,31.00
2022-11-22T11:24:45.546Z,28.80
2022-11-22T11:30:12.089Z,28.60
2022-11-22T11:35:16.116Z,30.20
2022-11-22T11:40:32.273Z,30.90
2022-11-22T11:45:35.955Z,30.30
2022-11-22T11:50:39.360Z,23.60
2022-11-22T11:55:42.772Z,31.30
2022-11-22T12:00:46.595Z,29.40
2022-11-22T12:06:14.033Z,31.90
2022-11-22T12:11:58.653Z,29.90
2022-11-22T12:17:10.872Z,27.00
2022-11-22T12:22:48.820Z,29.30
2022-11-22T12:27:52.104Z,29.00
2022-11-22T12:33:06.066Z,29.80
2022-11-22T12:38:15.007Z,29.10
2022-11-22T12:43:26.100Z,30.30
2022-11-22T12:48:37.398Z,28.70
2022-11-22T12:53:44.835Z,28.00
2022-11-22T12:59:02.146Z,26.90
2022-11-22T13:04:23.170Z,26.50
2022-11-22T13:09:36.720Z,24.50
2022-11-22T13:14:47.814Z,22.50
2022-11-22T13:19:55.937Z,22.20
2022-11-22T13:25:11.240Z,20.40
2022-11-22T13:30:23.980Z,19.80
2022-11-22T13:35:37.615Z,20.50
2022-11-22T13:40:52.088Z,20.80
2022-11-22T13:46:05.331Z,21.00
2022-11-22T13:51:09.664Z,23.10
2022-11-22T13:56:15.948Z,23.30
2022-11-22T14:01:35.089Z,22.70
2022-11-22T14:06:39.058Z,25.80
2022-11-22T14:12:04.892Z,19.30
2022-11-22T14:17:41.519Z,26.00
2022-11-22T14:23:02.406Z,27.20
2022-11-22T14:28:21.691Z,29.40
2022-11-22T14:33:28.303Z,30.60
2022-11-22T14:38:36.100Z,28.30
2022-11-22T14:43:41.431Z,33.50
2022-11-22T14:48:57.053Z,28.80
2022-11-22T14:54:03.961Z,31.00
2022-11-22T14:59:29.127Z,34.70
2022-11-22T15:09:15.255Z,34.20
2022-11-22T15:10:59.150Z,35.30
2022-11-22T16:00:10.951Z,37.10
2022-11-22T16:06:06.705Z,39.10
2022-11-22T16:10:42.731Z,37.20
2022-11-22T16:16:12.921Z,38.00
2022-11-22T16:21:16.626Z,35.00
2022-11-22T16:26:25.156Z,38.10
2022-11-22T16:31:32.458Z,36.30
2022-11-22T16:36:35.868Z,32.10
2022-11-22T16:41:39.282Z,33.90
2022-11-22T16:46:43.212Z,30.30
2022-11-22T16:51:51.368Z,28.00
2022-11-22T16:56:54.949Z,26.10
2022-11-22T17:01:59.900Z,23.00
2022-11-22T17:07:03.381Z,23.00
2022-11-22T17:12:14.839Z,22.90
2022-11-22T17:17:19.532Z,20.20
2022-11-22T17:22:23.279Z,18.70
2022-11-22T17:27:26.999Z,19.90
2022-11-22T17:32:30.311Z,19.60
2022-11-22T17:37:33.826Z,23.40
2022-11-22T17:42:41.135Z,21.40
2022-11-22T17:47:45.464Z,20.10
2022-11-22T17:52:49.195Z,19.90
2022-11-22T17:57:55.855Z,19.70
2022-11-22T18:03:03.777Z,23.00
2022-11-22T18:08:10.486Z,22.40
2022-11-22T18:13:21.242Z,21.60
2022-11-22T18:18:48.917Z,23.40
2022-11-22T18:23:49.190Z,13.50
2022-11-22T18:29:16.082Z,24.30
2022-11-22T18:34:16.399Z,19.70
2022-11-22T18:39:22.061Z,22.70
2022-11-22T18:44:25.885Z,21.10
2022-11-22T18:49:29.807Z,20.60
2022-11-22T18:54:34.109Z,17.70
2022-11-22T18:59:37.759Z,14.70
2022-11-22T19:04:41.381Z,17.80
2022-11-22T19:09:44.792Z,19.40
2022-11-22T19:14:48.309Z,20.40
2022-11-22T19:19:59.302Z,18.70
2022-11-22T19:25:02.711Z,21.00
2022-11-22T19:30:06.976Z,23.50
2022-11-22T19:35:10.358Z,18.40
2022-11-22T19:40:14.385Z,20.60
2022-11-22T19:45:17.800Z,21.50
2022-11-22T19:50:21.313Z,20.60
2022-11-22T19:55:24.829Z,20.10
2022-11-22T20:00:28.972Z,19.40
2022-11-22T20:05:33.089Z,19.30
2022-11-22T20:10:38.658Z,22.20
2022-11-22T20:15:41.942Z,22.70
2022-11-22T20:20:45.381Z,20.40
2022-11-22T20:25:48.891Z,21.20
2022-11-22T20:30:52.201Z,20.10
2022-11-22T20:36:04.731Z,20.00
2022-11-22T20:41:10.781Z,19.80
2022-11-22T20:46:16.883Z,18.00
2022-11-22T20:51:26.016Z,21.20
2022-11-22T20:56:29.443Z,20.00
2022-11-22T21:01:33.693Z,18.70
2022-11-22T21:06:37.291Z,19.80
2022-11-22T21:11:44.087Z,19.90
2022-11-22T21:16:47.599Z,22.40
2022-11-22T21:21:51.134Z,19.50
2022-11-22T21:26:54.528Z,17.70
2022-11-22T21:31:57.940Z,21.30
2022-11-22T21:37:01.459Z,21.60
2022-11-22T21:42:05.179Z,14.70
2022-11-22T21:47:08.691Z,18.80
2022-11-22T21:52:12.106Z,20.30
2022-11-22T21:57:15.519Z,23.50
2022-11-22T22:02:19.037Z,23.00
2022-11-22T22:07:50.847Z,15.60
2022-11-22T22:12:46.033Z,22.30
2022-11-22T22:17:53.849Z,23.10
2022-11-22T22:22:57.263Z,22.20
2022-11-22T22:28:00.880Z,24.00
2022-11-22T22:33:04.396Z,23.30
2022-11-22T22:38:07.911Z,22.00
2022-11-22T22:43:11.331Z,21.50
2022-11-22T22:48:14.841Z,19.20
2022-11-22T22:53:18.356Z,14.50
2022-11-22T22:58:22.074Z,18.80
2022-11-22T23:03:25.834Z,20.60
2022-11-22T23:08:29.210Z,20.30
2022-11-22T23:13:34.166Z,14.50
2022-11-22T23:18:43.551Z,19.00
2022-11-22T23:23:46.925Z,19.40
2022-11-22T23:28:51.159Z,18.60
2022-11-22T23:33:54.877Z,16.60
2022-11-22T23:38:58.290Z,13.70
2022-11-22T23:44:01.702Z,16.70
2022-11-22T23:49:06.326Z,19.10
2022-11-22T23:59:14.300Z,18.10
